Podatki so pridobljeni v realnem času in so neuradni. Podatki so informativne narave. Opozarjamo, da ne prevzamemo odgovornosti za morebitno nastalo škodo, ki bi nastala zaradi odločitve, sprejete na osnovi podatkov s portala vremenske postaje Rače.


VREMENSKA POSTAJA

Brezula - RAČE

Domov - PORTAL - Domov

Klikni na napis za vrnitev na portal.



Obiščite še:

Template documentation
and downloads

And another site



METAR v bližini

   
LJMB - Maribor
Posodobljeno: 18-07-2018 02:30
Jasno  
Jasno  
   Veter: Različen 1.9 km/h
Veter: Različen 1.9 km/h
Temperatura: 17°C
Točka rosišča: 13°C
Vlažnost: 77%
Zračni tlak: 1012 hPa
Oblaki: Jasno
Vidljivost: More than 10 km
Podrobnosti o oblakih: Jasno
LJMB 180030Z AUTO VRB01KT 9999 NCD 17/13 Q1012
LJLJ - Ljubljana
Posodobljeno: 18-07-2018 02:30
Jasno  
Jasno  
   Veter: Različen 1.9 km/h
Veter: Različen 1.9 km/h
Temperatura: 13°C
Točka rosišča: 12°C
Vlažnost: 94%
Zračni tlak: 1014 hPa
Vidljivost: More than 10 km
Podrobnosti o oblakih: Jasno
LJLJ 180030Z VRB01KT CAVOK 13/12 Q1014 NOSIG
LOWG - Graz
Posodobljeno: 18-07-2018 02:20
Delno oblačno  
Delno oblačno  
   Veter: Različen 1.9 km/h
Veter: Različen 1.9 km/h
Temperatura: 15°C
Točka rosišča: 12°C
Vlažnost: 82%
Zračni tlak: 1012 hPa
Oblaki: Delno oblačno
Vidljivost: More than 10 km
Podrobnosti o oblakih: Delno oblačno
LOWG 180020Z AUTO VRB01KT 9999 NSC 15/12 Q1012
LDZA - Zagreb
Posodobljeno: 18-07-2018 02:30
Jasno  
Jasno  
   Veter: ZJZ 11.1 km/h
Veter: ZJZ 11.1 km/h
Temperatura: 17°C
Točka rosišča: 15°C
Vlažnost: 88%
Zračni tlak: 1012 hPa
Vidljivost: More than 10 km
Podrobnosti o oblakih: Jasno
LDZA 180030Z 24006KT CAVOK 17/15 Q1012 NOSIG
  

Skripto razvil  Saratoga-weather.org Prilagoditev za tampleto od  Weerstation Leuven

Vremenski podatki so objavljeni na:

UK Metoffice

European Weather Network

WeatherCloud

Weather Underground

AWEKAS

Citizen Weather Observer Program (CWOP)

HAMweather, WeatherForYou, PWS Weather

Oprema, ki se uporablja:

Vremenska postaja
Oregon Scientific WMR200

Program za vreme
Cumulus

Server za vreme
Q-Box 270N

Ponudnik
IKONIO s.p.

Oregon Scientific WMR200

Cumulus

Q-Box 270N

IKONIO s.p.



VREMENSKA POSTAJA

Brezula - RAČE

Domov - PORTAL - Domov

Klikni na napis za vrnitev na portal.